Time;durP1;ratioP1;P1;durP2;ratioP2;P2;SDS_P1;SDS_P2;PMS_P1;PMS_P2;Temp;Humidity;BMP_temperature;BMP_pressure;BME280_temperature;BME280_humidity;BME280_pressure;Samples;Min_cycle;Max_cycle;Signal;HPM_P1;HPM_P2
2022/04/03 00:00:23;;;;;;;3.05;1.90;;;;;;;18.89;41.83;100308.94;4917014;29;20049;-77
2022/04/03 00:02:50;;;;;;;2.65;1.63;;;;;;;18.90;41.74;100313.31;4915930;29;20075;-78
2022/04/03 00:05:19;;;;;;;2.50;1.88;;;;;;;18.90;41.75;100319.50;4914664;29;20040;-78
2022/04/03 00:07:46;;;;;;;3.55;1.85;;;;;;;18.90;41.69;100319.50;4915866;29;20055;-78
2022/04/03 00:10:17;;;;;;;3.17;1.85;;;;;;;18.90;41.73;100324.88;4915961;29;20372;-78
2022/04/03 00:12:46;;;;;;;2.72;1.73;;;;;;;18.88;41.78;100324.19;4916387;29;20048;-78
2022/04/03 00:15:14;;;;;;;3.53;2.30;;;;;;;18.89;41.69;100328.56;4916271;29;20055;-78
2022/04/03 00:17:43;;;;;;;3.70;2.00;;;;;;;18.89;41.55;100330.38;4915944;29;20494;-79
2022/04/03 00:20:12;;;;;;;3.53;1.88;;;;;;;18.89;41.70;100328.56;4915228;29;20063;-78
2022/04/03 00:22:42;;;;;;;3.78;2.03;;;;;;;18.89;41.90;100333.91;4898751;29;20052;-78
2022/04/03 00:25:11;;;;;;;3.10;1.85;;;;;;;18.88;41.59;100336.72;4915432;29;20052;-78
2022/04/03 00:27:39;;;;;;;3.75;2.30;;;;;;;18.88;41.85;100334.91;4914285;29;20048;-77
2022/04/03 00:30:08;;;;;;;3.15;1.70;;;;;;;18.88;41.79;100334.03;4916552;29;20048;-79
2022/04/03 00:32:36;;;;;;;3.45;1.80;;;;;;;18.88;41.57;100332.22;4915600;29;20059;-78
2022/04/03 00:35:04;;;;;;;2.80;1.90;;;;;;;18.88;41.59;100340.28;4914535;29;20044;-78
2022/04/03 00:37:32;;;;;;;3.03;1.98;;;;;;;18.88;41.64;100342.97;4900079;29;20052;-78
2022/04/03 00:40:00;;;;;;;4.93;2.38;;;;;;;18.88;41.61;100347.44;4896954;29;20052;-78
2022/04/03 00:42:28;;;;;;;2.50;1.65;;;;;;;18.87;41.60;100346.59;4896926;29;20056;-78
2022/04/03 00:44:55;;;;;;;2.65;2.00;;;;;;;18.87;41.70;100351.13;4896611;29;20048;-78
2022/04/03 00:47:23;;;;;;;2.83;1.95;;;;;;;18.87;41.59;100351.13;4880244;29;20052;-78
2022/04/03 00:49:51;;;;;;;2.75;1.83;;;;;;;18.87;41.61;100351.97;4896331;29;20048;-78
2022/04/03 00:52:18;;;;;;;2.47;1.67;;;;;;;18.87;41.75;100356.50;4896578;29;20071;-78
2022/04/03 00:54:47;;;;;;;3.20;2.00;;;;;;;18.87;41.38;100354.66;4895262;29;20508;-78
2022/04/03 00:57:14;;;;;;;2.72;1.83;;;;;;;18.86;41.83;100355.66;4896381;29;20381;-78
2022/04/03 00:59:43;;;;;;;3.13;1.80;;;;;;;18.87;41.68;100361.84;4896098;29;20056;-78
2022/04/03 01:02:11;;;;;;;2.70;1.73;;;;;;;18.87;41.76;100364.53;4895442;29;20048;-78
2022/04/03 01:04:39;;;;;;;2.95;2.05;;;;;;;18.86;41.75;100365.53;4896387;29;20048;-79
2022/04/03 01:07:07;;;;;;;3.63;1.90;;;;;;;18.86;41.77;100361.00;4896476;29;20049;-78
2022/04/03 01:09:35;;;;;;;3.58;1.73;;;;;;;18.85;41.82;100356.63;4896545;29;20049;-78
2022/04/03 01:12:02;;;;;;;2.95;1.98;;;;;;;18.85;41.89;100362.00;4895296;29;20377;-78
2022/04/03 01:14:38;;;;;;;3.03;2.17;;;;;;;18.86;41.77;100370.91;4895935;29;20059;-78
2022/04/03 01:17:07;;;;;;;4.07;1.83;;;;;;;18.85;41.77;100372.72;4896708;29;20060;-78
2022/04/03 01:19:35;;;;;;;2.65;1.73;;;;;;;18.85;41.80;100370.06;4879220;29;20059;-78
2022/04/03 01:22:02;;;;;;;5.72;2.10;;;;;;;18.85;41.95;100374.56;4895965;29;20049;-78
2022/04/03 01:24:30;;;;;;;3.05;1.60;;;;;;;18.86;41.90;100381.63;4895985;29;20053;-78
2022/04/03 01:27:03;;;;;;;3.55;1.80;;;;;;;18.85;41.81;100386.13;4896485;29;20542;-78
2022/04/03 01:29:31;;;;;;;2.25;1.48;;;;;;;18.85;42.06;100387.97;4879773;29;20079;-77
2022/04/03 01:31:58;;;;;;;4.30;1.90;;;;;;;18.84;41.79;100387.13;4896191;29;20507;-78
2022/04/03 01:34:26;;;;;;;1.98;1.40;;;;;;;18.85;41.81;100385.28;4879786;29;20420;-78
2022/04/03 01:36:53;;;;;;;2.88;1.75;;;;;;;18.84;41.91;100391.63;4896097;29;20052;-78
2022/04/03 01:39:21;;;;;;;3.05;1.58;;;;;;;18.84;41.93;100391.63;4898090;29;20041;-78
2022/04/03 01:41:48;;;;;;;2.60;1.65;;;;;;;18.85;41.93;100390.66;4900448;29;20067;-78
2022/04/03 01:44:16;;;;;;;2.97;2.03;;;;;;;18.85;41.82;100396.03;4896481;29;20052;-78
2022/04/03 01:46:43;;;;;;;2.40;1.77;;;;;;;18.84;41.90;100392.50;4895587;29;20056;-77
2022/04/03 01:49:11;;;;;;;3.42;1.60;;;;;;;18.85;41.96;100404.06;4895961;29;20111;-78
2022/04/03 01:51:38;;;;;;;3.22;1.65;;;;;;;18.84;41.90;100408.59;4895901;29;20048;-78
2022/04/03 01:54:07;;;;;;;3.10;1.60;;;;;;;18.83;41.95;100409.56;4899196;29;20044;-78
2022/04/03 01:56:34;;;;;;;2.83;2.20;;;;;;;18.84;41.89;100405.03;4962746;28;20059;-79
2022/04/03 01:59:04;;;;;;;2.50;1.40;;;;;;;18.84;41.93;100399.66;4914686;29;20052;-78
2022/04/03 02:01:33;;;;;;;2.53;1.60;;;;;;;18.83;41.80;100408.72;4914585;29;20055;-79
2022/04/03 02:04:03;;;;;;;2.25;1.50;;;;;;;18.83;42.05;100408.72;4914453;29;20056;-78
2022/04/03 02:06:31;;;;;;;3.92;1.27;;;;;;;18.82;42.05;100418.59;4898090;29;20044;-79
2022/04/03 02:09:01;;;;;;;3.30;1.70;;;;;;;18.83;42.02;100419.44;4898653;29;20068;-77
2022/04/03 02:11:29;;;;;;;2.97;1.80;;;;;;;18.82;42.21;100423.97;4915319;29;20052;-78
2022/04/03 02:13:56;;;;;;;2.80;1.52;;;;;;;18.83;41.85;100427.47;4914077;29;20057;-79
2022/04/03 02:16:24;;;;;;;3.95;1.90;;;;;;;18.82;42.09;100426.63;4914107;29;20049;-79
2022/04/03 02:18:51;;;;;;;2.42;1.50;;;;;;;18.83;42.10;100420.28;4897255;29;20060;-76
2022/04/03 02:21:18;;;;;;;3.95;2.00;;;;;;;18.84;41.71;100429.16;4912986;29;20052;-78
2022/04/03 02:23:46;;;;;;;2.45;1.98;;;;;;;18.83;41.75;100420.28;4914343;29;20522;-78
2022/04/03 02:26:14;;;;;;;2.95;1.73;;;;;;;18.83;41.87;100419.44;4898141;29;20044;-78
2022/04/03 02:28:41;;;;;;;4.03;1.73;;;;;;;18.83;42.05;100424.81;4912858;29;20048;-78
2022/04/03 02:31:08;;;;;;;2.30;1.48;;;;;;;18.83;41.89;100427.47;4915164;29;20435;-78
2022/04/03 02:33:36;;;;;;;3.22;1.70;;;;;;;18.82;42.14;100429.31;4917544;29;20507;-77
2022/04/03 02:36:04;;;;;;;2.83;1.75;;;;;;;18.83;42.07;100431.00;4914349;29;20428;-78
2022/04/03 02:38:32;;;;;;;2.70;1.60;;;;;;;18.82;42.01;100434.69;4898639;29;20057;-78
2022/04/03 02:40:59;;;;;;;3.78;1.70;;;;;;;18.82;42.07;100440.06;4898258;29;20037;-78
2022/04/03 02:43:26;;;;;;;3.33;2.00;;;;;;;18.82;41.96;100445.41;4880960;29;20049;-79
2022/04/03 02:45:54;;;;;;;3.88;1.85;;;;;;;18.83;41.99;100452.47;4898331;29;20400;-78
2022/04/03 02:48:22;;;;;;;2.78;1.90;;;;;;;18.82;41.83;100450.78;4898511;29;20479;-78
2022/04/03 02:50:49;;;;;;;3.28;2.00;;;;;;;18.81;42.06;100457.13;4897316;29;20056;-79
2022/04/03 02:53:16;;;;;;;3.47;1.58;;;;;;;18.82;41.84;100460.66;4898249;29;20059;-78
2022/04/03 02:55:44;;;;;;;4.30;1.90;;;;;;;18.82;42.07;100466.88;4898585;29;20052;-79
2022/04/03 02:58:11;;;;;;;3.05;1.55;;;;;;;18.81;41.96;100475.91;4881337;29;20053;-78
2022/04/03 03:00:39;;;;;;;4.38;2.08;;;;;;;18.82;41.94;100471.38;4881924;29;20044;-78
2022/04/03 03:03:07;;;;;;;4.22;1.90;;;;;;;18.81;41.97;100475.91;4898376;29;20055;-78
2022/04/03 03:05:36;;;;;;;3.45;2.15;;;;;;;18.81;41.92;100481.28;4898375;29;20036;-78
2022/04/03 03:08:04;;;;;;;2.67;1.60;;;;;;;18.80;41.88;100473.34;4898004;29;20404;-78
2022/04/03 03:10:31;;;;;;;2.55;1.70;;;;;;;18.80;42.11;100489.44;4898421;29;20052;-79
2022/04/03 03:12:59;;;;;;;4.95;1.90;;;;;;;18.81;41.85;100481.28;4898538;29;20063;-79
2022/04/03 03:15:26;;;;;;;2.97;2.00;;;;;;;18.81;42.07;100483.13;4898135;29;20053;-78
2022/04/03 03:17:54;;;;;;;3.85;1.77;;;;;;;18.80;41.81;100487.63;4880837;29;20057;-78
2022/04/03 03:20:21;;;;;;;2.65;1.70;;;;;;;18.79;41.93;100483.22;4897989;29;20052;-78
2022/04/03 03:22:49;;;;;;;3.53;1.90;;;;;;;18.78;41.88;100495.78;4898150;29;20060;-78
2022/04/03 03:25:16;;;;;;;3.67;1.92;;;;;;;18.78;41.90;100501.16;4897584;29;20045;-78
2022/04/03 03:27:44;;;;;;;2.20;1.73;;;;;;;18.79;41.87;100507.38;4897935;29;20068;-78
2022/04/03 03:30:11;;;;;;;2.83;1.52;;;;;;;18.78;41.97;100503.84;4897476;29;20064;-77
2022/04/03 03:32:39;;;;;;;3.30;1.90;;;;;;;18.78;41.83;100517.25;4897884;29;20048;-77
2022/04/03 03:35:08;;;;;;;4.20;1.88;;;;;;;18.78;41.92;100517.25;4880928;29;20053;-78
2022/04/03 03:37:35;;;;;;;6.32;1.85;;;;;;;18.78;41.97;100517.25;4897612;29;20049;-78
2022/04/03 03:40:04;;;;;;;3.45;1.90;;;;;;;18.78;41.92;100527.97;4881121;29;20068;-78
2022/04/03 03:42:31;;;;;;;3.35;1.88;;;;;;;18.78;41.87;100530.66;4896229;29;20075;-78
2022/04/03 03:44:59;;;;;;;6.72;1.67;;;;;;;18.78;42.02;100535.19;4879137;29;20150;-78
2022/04/03 03:47:27;;;;;;;4.15;2.00;;;;;;;18.77;42.18;100536.16;4878706;29;20052;-79
2022/04/03 03:49:55;;;;;;;2.35;1.95;;;;;;;18.77;41.96;100539.69;4879058;29;20052;-78
2022/04/03 03:52:22;;;;;;;2.50;1.70;;;;;;;18.77;41.98;100547.75;4878813;29;20053;-77
2022/04/03 03:54:51;;;;;;;3.00;1.70;;;;;;;18.77;42.10;100539.69;4879065;29;20049;-78
2022/04/03 03:57:18;;;;;;;3.58;1.88;;;;;;;18.76;42.10;100535.31;4878724;29;20053;-78
2022/04/03 03:59:46;;;;;;;2.55;1.65;;;;;;;18.77;42.20;100539.69;4878518;29;20053;-78
2022/04/03 04:02:13;;;;;;;2.78;1.70;;;;;;;18.77;42.20;100544.22;4877582;29;20057;-78
2022/04/03 04:04:41;;;;;;;2.85;1.75;;;;;;;18.77;42.38;100547.75;4878630;29;20053;-78
2022/04/03 04:07:08;;;;;;;3.10;1.80;;;;;;;18.77;42.22;100541.53;4878418;29;20056;-77
2022/04/03 04:09:36;;;;;;;2.97;1.80;;;;;;;18.77;42.13;100549.56;4878413;29;20056;-78
2022/04/03 04:12:04;;;;;;;3.63;1.80;;;;;;;18.77;42.17;100560.31;4876506;29;20064;-78
2022/04/03 04:14:32;;;;;;;3.30;2.17;;;;;;;18.76;42.28;100562.13;4878617;29;20057;-78
2022/04/03 04:16:59;;;;;;;3.88;2.00;;;;;;;18.76;42.08;100563.97;4878202;29;20053;-78
2022/04/03 04:19:27;;;;;;;5.38;1.85;;;;;;;18.77;42.27;100560.31;4878394;29;20053;-79
2022/04/03 04:21:54;;;;;;;3.38;1.55;;;;;;;18.76;42.34;100562.13;4878403;29;20064;-78
2022/04/03 04:24:21;;;;;;;2.78;1.70;;;;;;;18.76;42.41;100566.66;4877382;29;20396;-78
2022/04/03 04:26:49;;;;;;;2.90;1.50;;;;;;;18.76;42.38;100566.66;4861228;29;20072;-78
2022/04/03 04:29:16;;;;;;;3.90;1.80;;;;;;;18.76;42.56;100574.69;4878491;29;20049;-78
2022/04/03 04:31:44;;;;;;;2.70;1.60;;;;;;;18.76;42.56;100578.22;4877797;29;20052;-78
2022/04/03 04:34:11;;;;;;;2.45;1.67;;;;;;;18.75;42.51;100584.56;4877193;29;20045;-78
2022/04/03 04:36:38;;;;;;;2.88;1.70;;;;;;;18.75;42.53;100597.97;4881763;29;20060;-78
2022/04/03 04:39:06;;;;;;;2.67;2.00;;;;;;;18.76;42.49;100602.38;4896292;28;20558;-78
2022/04/03 04:41:33;;;;;;;4.30;2.10;;;;;;;18.75;42.44;100606.00;4896591;29;20048;-77
2022/04/03 04:44:01;;;;;;;3.58;1.75;;;;;;;18.75;42.63;100618.56;4895858;29;20049;-78
2022/04/03 04:46:28;;;;;;;3.50;1.67;;;;;;;18.75;42.50;100621.25;4879501;29;20056;-78
2022/04/03 04:48:56;;;;;;;3.15;1.85;;;;;;;18.74;42.61;100631.13;4880729;29;20580;-78
2022/04/03 04:51:24;;;;;;;3.55;2.20;;;;;;;18.74;42.43;100647.22;4880424;29;20060;-78
2022/04/03 04:53:51;;;;;;;3.85;1.90;;;;;;;18.73;42.34;100645.53;4881293;29;20052;-78
2022/04/03 04:56:18;;;;;;;4.72;2.10;;;;;;;18.73;42.38;100650.91;4915195;29;20380;-77
2022/04/03 04:58:46;;;;;;;3.08;1.70;;;;;;;18.74;42.52;100665.16;4915281;29;20052;-77
2022/04/03 05:01:13;;;;;;;3.03;1.80;;;;;;;18.73;42.47;100664.31;4915002;29;20048;-77
2022/04/03 05:03:41;;;;;;;2.80;1.85;;;;;;;18.71;42.58;100666.25;4915218;29;20052;-78
2022/04/03 05:06:12;;;;;;;3.35;1.77;;;;;;;18.73;42.40;100666.13;4914084;29;20048;-78
2022/04/03 05:08:40;;;;;;;2.80;1.77;;;;;;;18.71;42.59;100668.09;4898715;29;20060;-78
2022/04/03 05:11:08;;;;;;;3.42;1.90;;;;;;;18.73;42.42;100674.19;4915515;29;20055;-77
2022/04/03 05:13:35;;;;;;;3.58;2.20;;;;;;;18.71;42.50;100668.09;4914921;29;20063;-78
2022/04/03 05:16:03;;;;;;;2.97;1.80;;;;;;;18.72;42.43;100661.75;4915097;29;20052;-78
2022/04/03 05:18:35;;;;;;;3.13;1.73;;;;;;;18.72;42.56;100665.28;4915479;29;20063;-78
2022/04/03 05:21:06;;;;;;;2.33;1.73;;;;;;;18.71;42.55;100662.72;4898439;29;20059;-78
2022/04/03 05:23:33;;;;;;;2.83;1.70;;;;;;;18.71;42.50;100654.69;4897772;29;20060;-77
2022/04/03 05:26:01;;;;;;;2.33;1.70;;;;;;;18.71;42.60;100650.16;4914925;29;20518;-78
2022/04/03 05:28:28;;;;;;;3.83;1.92;;;;;;;18.70;42.60;100645.78;4914755;29;20048;-75
2022/04/03 05:30:56;;;;;;;2.67;1.65;;;;;;;18.70;42.66;100643.09;4914757;29;20380;-78
2022/04/03 05:33:23;;;;;;;2.83;1.55;;;;;;;18.69;42.44;100636.03;4915181;29;20048;-79
2022/04/03 05:35:50;;;;;;;2.22;1.80;;;;;;;18.71;42.53;100646.63;4913649;29;20064;-78
2022/04/03 05:38:18;;;;;;;2.22;1.40;;;;;;;18.69;42.72;100641.38;4913303;29;20052;-77
2022/04/03 05:40:46;;;;;;;2.05;1.25;;;;;;;18.69;42.58;100654.78;4914647;29;20056;-78
2022/04/03 05:43:13;;;;;;;2.58;1.63;;;;;;;18.69;42.63;100665.50;4910052;29;20045;-78
2022/04/03 05:45:40;;;;;;;2.72;1.80;;;;;;;18.69;42.61;100676.25;4898306;29;20068;-78
2022/04/03 05:48:08;;;;;;;3.17;1.70;;;;;;;18.70;42.57;100685.16;4896462;29;20049;-78
2022/04/03 05:50:37;;;;;;;3.13;1.80;;;;;;;18.69;42.66;100686.97;4959939;28;20063;-78
2022/04/03 05:53:06;;;;;;;2.58;1.42;;;;;;;18.68;42.71;100690.63;4896022;29;20060;-78
2022/04/03 05:55:33;;;;;;;3.55;1.92;;;;;;;18.69;42.52;100686.13;4895881;29;20040;-78
2022/04/03 05:58:01;;;;;;;2.50;1.80;;;;;;;18.69;42.65;100689.66;4895643;29;20370;-79
2022/04/03 06:00:29;;;;;;;3.10;1.70;;;;;;;18.69;42.74;100700.38;4895819;29;20048;-79
2022/04/03 06:03:01;;;;;;;3.40;2.08;;;;;;;18.68;42.96;100696.00;4896288;29;20056;-79
2022/04/03 06:05:31;;;;;;;3.15;1.75;;;;;;;18.68;42.71;100693.31;4896017;29;20059;-78
2022/04/03 06:08:01;;;;;;;2.92;1.73;;;;;;;18.68;42.70;100700.50;4898852;29;20049;-78
2022/04/03 06:10:29;;;;;;;3.42;1.65;;;;;;;18.68;42.71;100708.56;4898596;29;20404;-78
2022/04/03 06:13:05;;;;;;;3.75;1.75;;;;;;;18.68;42.71;100719.28;4898539;29;20052;-78
2022/04/03 06:15:36;;;;;;;4.38;1.70;;;;;;;18.67;42.61;100723.78;4898678;29;20049;-78
2022/04/03 06:18:07;;;;;;;2.50;1.70;;;;;;;18.68;42.94;100724.66;4898751;29;20048;-78
2022/04/03 06:20:35;;;;;;;3.80;1.70;;;;;;;18.67;42.76;100729.13;4897798;29;20506;-77
2022/04/03 06:23:11;;;;;;;3.17;1.73;;;;;;;18.66;42.75;100732.81;4898421;29;20400;-77
2022/04/03 06:25:42;;;;;;;3.05;1.50;;;;;;;18.67;42.81;100739.00;4898929;28;20063;-78
2022/04/03 06:28:10;;;;;;;2.17;1.48;;;;;;;18.68;42.77;100743.41;4897861;29;20048;-77
2022/04/03 06:30:38;;;;;;;2.30;1.50;;;;;;;18.68;42.81;100741.59;4898292;29;20064;-78
2022/04/03 06:33:06;;;;;;;2.67;1.65;;;;;;;18.68;42.81;100748.78;4898486;29;20057;-77
2022/04/03 06:35:33;;;;;;;2.22;1.48;;;;;;;18.67;42.72;100747.91;4898222;29;20052;-77
2022/04/03 06:38:01;;;;;;;2.28;1.60;;;;;;;18.67;42.74;100752.41;4897957;29;20048;-78
2022/04/03 06:40:29;;;;;;;3.10;1.70;;;;;;;18.68;42.85;100746.94;4897895;29;20055;-78
2022/04/03 06:42:56;;;;;;;3.20;1.65;;;;;;;18.66;42.82;100751.56;4898204;29;20064;-78
2022/04/03 06:45:24;;;;;;;3.38;1.33;;;;;;;18.68;42.87;100764.88;4896757;29;20052;-78
2022/04/03 06:47:52;;;;;;;2.70;1.58;;;;;;;18.66;42.90;100774.88;4897518;29;20400;-77
2022/04/03 06:50:19;;;;;;;3.17;1.55;;;;;;;18.67;42.78;100780.09;4898288;29;20053;-78
2022/04/03 06:52:47;;;;;;;2.47;1.40;;;;;;;18.67;42.93;100793.50;4881358;29;20053;-79
2022/04/03 06:55:14;;;;;;;3.10;1.60;;;;;;;18.67;42.89;100789.97;4909571;29;20052;-79
2022/04/03 06:57:42;;;;;;;3.88;1.65;;;;;;;18.66;42.67;100789.13;4915146;29;20055;-79
2022/04/03 07:00:13;;;;;;;2.72;1.50;;;;;;;18.66;42.75;100789.13;4916516;29;20411;-79
2022/04/03 07:02:40;;;;;;;2.60;1.58;;;;;;;18.67;42.72;100789.97;4916630;29;20503;-79
2022/04/03 07:05:09;;;;;;;3.15;1.60;;;;;;;18.67;42.90;100792.66;4916518;29;20480;-78
2022/04/03 07:07:37;;;;;;;2.53;1.45;;;;;;;18.67;42.91;100795.31;4916305;29;20045;-79
2022/04/03 07:10:06;;;;;;;3.08;1.70;;;;;;;18.67;42.89;100795.31;4916692;29;20075;-79
2022/04/03 07:12:33;;;;;;;3.33;1.73;;;;;;;18.66;42.90;100791.78;4899456;29;20059;-79
2022/04/03 07:15:01;;;;;;;2.30;1.40;;;;;;;18.66;42.74;100794.47;4915518;29;20056;-78
2022/04/03 07:17:29;;;;;;;2.42;1.50;;;;;;;18.66;43.01;100799.00;4915287;29;20044;-78
2022/04/03 07:20:02;;;;;;;2.60;1.50;;;;;;;18.67;42.89;100801.53;4916147;29;20059;-78
2022/04/03 07:22:30;;;;;;;2.92;1.42;;;;;;;18.66;42.96;100799.84;4899092;29;20067;-79
2022/04/03 07:24:57;;;;;;;2.45;1.52;;;;;;;18.66;42.87;100809.72;4916288;29;20056;-78
2022/04/03 07:27:27;;;;;;;2.72;1.60;;;;;;;18.67;42.83;100806.06;4915996;29;20052;-78
2022/04/03 07:29:54;;;;;;;2.15;1.40;;;;;;;18.65;42.88;100814.22;4915075;29;20041;-78
2022/04/03 07:32:23;;;;;;;2.83;1.40;;;;;;;18.66;43.12;100815.94;4916188;29;20044;-78
2022/04/03 07:34:50;;;;;;;1.90;1.33;;;;;;;18.66;42.92;100815.94;4916240;29;20403;-78
2022/04/03 07:37:17;;;;;;;1.73;1.10;;;;;;;18.65;42.95;100827.63;4916137;29;20400;-78
2022/04/03 07:39:45;;;;;;;2.97;1.42;;;;;;;18.66;42.81;100828.50;4915759;29;20056;-77
2022/04/03 07:42:12;;;;;;;4.53;1.58;;;;;;;18.66;42.86;100840.06;4899398;29;20059;-78
2022/04/03 07:44:39;;;;;;;2.08;1.38;;;;;;;18.66;42.84;100847.25;4914879;29;20051;-78
2022/04/03 07:47:07;;;;;;;2.00;1.20;;;;;;;18.66;42.86;100836.53;4885758;29;20052;-78
2022/04/03 07:49:34;;;;;;;2.28;1.33;;;;;;;18.65;42.95;100842.88;4902001;29;20049;-78
2022/04/03 07:52:02;;;;;;;2.60;1.48;;;;;;;18.66;42.83;100858.00;4896947;28;20056;-78
2022/04/03 07:54:29;;;;;;;2.05;1.23;;;;;;;18.66;42.71;100860.66;4896885;29;20377;-79
2022/04/03 07:56:57;;;;;;;3.45;1.80;;;;;;;18.65;42.67;100854.47;4896393;29;20060;-78
2022/04/03 07:59:24;;;;;;;3.10;1.15;;;;;;;18.65;42.76;100865.19;4896674;29;20045;-78
2022/04/03 08:01:51;;;;;;;2.47;1.10;;;;;;;18.64;42.66;100876.91;4880118;29;20060;-78
2022/04/03 08:04:19;;;;;;;2.38;1.30;;;;;;;18.65;42.84;100875.91;4895708;29;20052;-79
2022/04/03 08:06:46;;;;;;;3.50;1.23;;;;;;;18.65;42.76;100881.28;4896926;29;20063;-79
2022/04/03 08:09:17;;;;;;;3.40;1.40;;;;;;;18.64;42.73;100882.25;4896567;29;20769;-79
2022/04/03 08:11:45;;;;;;;1.88;1.20;;;;;;;18.65;42.83;100883.94;4896935;29;20530;-79
2022/04/03 08:14:12;;;;;;;2.50;1.30;;;;;;;18.65;42.83;100886.63;4897290;29;20076;-79
2022/04/03 08:16:40;;;;;;;2.58;1.42;;;;;;;18.65;42.85;100894.69;4896714;29;20056;-78
2022/04/03 08:19:07;;;;;;;2.10;1.42;;;;;;;18.65;42.73;100899.19;4879811;29;20504;-79
2022/04/03 08:21:35;;;;;;;2.75;1.20;;;;;;;18.65;42.72;100900.03;4895375;29;20063;-78
2022/04/03 08:24:02;;;;;;;2.15;1.20;;;;;;;18.65;42.72;100907.25;4896508;29;20048;-78
2022/04/03 08:26:29;;;;;;;3.28;1.85;;;;;;;18.61;41.21;100909.31;4895264;29;20538;-78
2022/04/03 08:28:57;;;;;;;2.42;1.60;;;;;;;18.44;41.10;100924.09;4896310;29;20044;-78
2022/04/03 08:31:24;;;;;;;3.03;1.73;;;;;;;18.32;41.08;100916.19;4895061;29;20057;-79
2022/04/03 08:33:52;;;;;;;2.85;1.80;;;;;;;18.26;41.03;100925.56;4896304;29;20052;-78
2022/04/03 08:36:20;;;;;;;3.25;1.83;;;;;;;18.06;40.25;100927.13;4896096;29;20060;-78
2022/04/03 08:38:50;;;;;;;3.15;1.90;;;;;;;17.92;41.06;100927.38;4895938;29;20056;-78
2022/04/03 08:41:17;;;;;;;2.38;1.50;;;;;;;17.94;41.35;100936.13;4896246;29;20057;-78
2022/04/03 08:43:47;;;;;;;3.70;1.60;;;;;;;17.94;41.41;100930.78;4896274;29;20049;-78
2022/04/03 08:46:17;;;;;;;2.45;1.85;;;;;;;17.95;41.22;100927.16;4895899;29;20037;-78
2022/04/03 08:48:46;;;;;;;2.78;1.77;;;;;;;17.93;41.23;100934.44;4895886;29;20396;-77
2022/04/03 08:51:14;;;;;;;4.63;1.67;;;;;;;17.92;41.21;100932.75;4896139;29;20408;-77
2022/04/03 08:53:45;;;;;;;2.20;1.30;;;;;;;17.90;41.24;100935.53;4895900;29;20048;-77
2022/04/03 08:56:13;;;;;;;3.40;1.95;;;;;;;17.91;41.36;100941.75;4898101;29;20059;-77
2022/04/03 08:58:40;;;;;;;3.45;1.58;;;;;;;17.93;41.53;100940.66;4914807;29;20047;-77
2022/04/03 09:01:08;;;;;;;3.40;1.58;;;;;;;17.90;41.09;100943.56;4914062;29;20063;-78
2022/04/03 09:03:35;;;;;;;3.22;1.60;;;;;;;17.92;41.12;100946.97;4914176;29;20067;-77
2022/04/03 09:06:17;;;;;;;4.15;1.90;;;;;;;17.92;40.72;100943.47;4897787;29;20052;-78
2022/04/03 09:08:45;;;;;;;2.72;1.40;;;;;;;17.95;40.80;100946.75;4897928;29;20048;-76
2022/04/03 09:11:13;;;;;;;2.60;1.77;;;;;;;17.99;40.56;100940.19;4914970;29;20059;-79
2022/04/03 09:13:42;;;;;;;3.13;1.50;;;;;;;17.90;39.63;100948.06;4914623;29;20379;-76
2022/04/03 09:16:11;;;;;;;3.60;1.95;;;;;;;17.96;40.71;100958.31;4897494;29;20059;-76
2022/04/03 09:18:51;;;;;;;3.38;1.50;;;;;;;18.03;41.33;100946.16;4914761;29;20048;-77
2022/04/03 09:21:25;;;;;;;2.25;1.33;;;;;;;18.11;41.32;100948.19;4897610;29;20063;-77
2022/04/03 09:24:07;;;;;;;2.40;1.30;;;;;;;18.19;41.38;100953.81;4898033;29;20055;-77
2022/04/03 09:26:36;;;;;;;3.33;1.33;;;;;;;18.24;41.22;100959.69;4915088;29;20490;-77
2022/04/03 09:29:07;;;;;;;2.20;1.27;;;;;;;18.25;41.04;100948.81;4914661;29;20040;-77
2022/04/03 09:31:35;;;;;;;2.67;1.33;;;;;;;18.32;41.35;100951.03;4914652;29;20052;-76
2022/04/03 09:34:05;;;;;;;3.25;1.75;;;;;;;18.34;40.94;100952.59;4914563;29;20055;-76
2022/04/03 09:36:33;;;;;;;6.47;1.98;;;;;;;18.37;40.53;100957.72;4914076;29;20491;-76
2022/04/03 09:39:12;;;;;;;3.10;1.38;;;;;;;18.40;41.06;100948.59;4914205;29;20052;-76
2022/04/03 09:42:03;;;;;;;2.60;1.30;;;;;;;18.44;41.26;100956.25;4911381;29;20083;-77
2022/04/03 09:44:42;;;;;;;5.55;1.85;;;;;;;18.47;41.16;100950.66;4914292;29;20400;-76
2022/04/03 09:47:17;;;;;;;4.32;1.30;;;;;;;18.49;40.95;100942.47;4909389;29;20049;-76
2022/04/03 09:49:54;;;;;;;4.60;1.40;;;;;;;18.51;41.15;100943.19;4895079;29;20067;-77
2022/04/03 09:52:42;;;;;;;3.75;1.88;;;;;;;18.54;41.26;100934.91;4895357;29;20404;-77
2022/04/03 09:55:15;;;;;;;3.10;1.52;;;;;;;18.56;41.02;100941.03;4906473;29;20079;-79
2022/04/03 09:58:04;;;;;;;5.85;1.70;;;;;;;18.62;41.19;100932.47;4897645;29;20495;-81
2022/04/03 10:00:47;;;;;;;3.88;1.40;;;;;;;18.73;40.85;100942.34;4914234;29;20055;-79
2022/04/03 10:03:15;;;;;;;3.97;1.50;;;;;;;18.76;40.51;100945.66;4912987;29;20056;-77
2022/04/03 10:05:44;;;;;;;4.93;1.83;;;;;;;18.75;39.17;100948.44;4914149;29;20403;-78
2022/04/03 10:08:12;;;;;;;4.60;1.60;;;;;;;18.70;39.24;100950.66;4897267;29;20052;-79
2022/04/03 10:10:40;;;;;;;3.45;1.58;;;;;;;18.68;39.19;100953.44;4897286;28;20476;-79
2022/04/03 10:13:10;;;;;;;4.80;1.50;;;;;;;18.70;39.82;100953.31;4914010;29;20067;-78
2022/04/03 10:15:38;;;;;;;3.40;1.60;;;;;;;18.69;39.60;100954.28;4913860;29;20055;-78
2022/04/03 10:18:06;;;;;;;5.45;1.60;;;;;;;18.69;39.82;100956.97;4906505;29;20385;-78
2022/04/03 10:20:36;;;;;;;3.17;1.60;;;;;;;18.69;39.10;100949.75;4894775;29;20052;-78
2022/04/03 10:23:12;;;;;;;2.15;1.10;;;;;;;18.68;39.07;100953.44;4895048;29;20060;-78
2022/04/03 10:25:45;;;;;;;2.92;1.63;;;;;;;18.68;39.09;100952.59;4895337;29;20056;-79
2022/04/03 10:28:17;;;;;;;4.07;1.55;;;;;;;18.68;39.50;100953.44;4895429;28;20053;-77
2022/04/03 10:30:45;;;;;;;5.13;1.83;;;;;;;18.68;40.02;100953.44;4895615;29;20045;-78
2022/04/03 10:33:20;;;;;;;3.10;1.80;;;;;;;18.67;39.04;100946.34;4895114;29;20052;-77
2022/04/03 10:35:50;;;;;;;5.53;1.80;;;;;;;18.69;39.10;100959.63;4894954;29;20059;-78
2022/04/03 10:38:19;;;;;;;2.47;1.58;;;;;;;18.68;39.31;100958.78;4894921;29;20044;-78
2022/04/03 10:40:58;;;;;;;2.63;1.60;;;;;;;18.68;39.27;100961.47;4894430;29;20053;-77
2022/04/03 10:43:29;;;;;;;3.58;1.45;;;;;;;18.68;39.66;100961.47;4894993;29;20061;-79
2022/04/03 10:45:57;;;;;;;3.63;1.65;;;;;;;18.70;40.27;100967.59;4878427;29;20063;-77
2022/04/03 10:48:26;;;;;;;4.28;1.73;;;;;;;18.69;39.50;100960.50;4893882;29;20052;-76
2022/04/03 10:51:04;;;;;;;3.00;1.50;;;;;;;18.69;38.67;100957.81;4894174;29;20396;-77
2022/04/03 10:53:41;;;;;;;2.60;1.33;;;;;;;18.69;38.53;100957.81;4897269;29;20055;-77
2022/04/03 10:56:19;;;;;;;1.98;1.38;;;;;;;18.69;38.21;100960.50;4879088;29;20060;-78
2022/04/03 10:58:49;;;;;;;3.63;1.70;;;;;;;18.70;38.05;100966.72;4879375;29;20377;-78
2022/04/03 11:01:31;;;;;;;2.20;1.27;;;;;;;18.68;37.89;100964.16;4879703;29;20049;-77
2022/04/03 11:04:13;;;;;;;3.10;1.42;;;;;;;18.68;37.51;100974.03;4878951;29;20056;-78
2022/04/03 11:06:42;;;;;;;2.90;1.47;;;;;;;18.66;37.32;100968.78;4879101;29;20053;-78
2022/04/03 11:09:36;;;;;;;2.88;1.75;;;;;;;18.65;37.42;100963.56;4862406;29;20057;-77
2022/04/03 11:12:04;;;;;;;3.40;1.70;;;;;;;18.65;37.15;100961.72;4879191;28;20090;-77
2022/04/03 11:14:57;;;;;;;3.22;1.55;;;;;;;18.66;38.39;100960.72;4878628;29;20501;-78
2022/04/03 11:17:47;;;;;;;2.67;1.35;;;;;;;18.67;39.00;100973.16;4878742;29;20060;-77
2022/04/03 11:20:42;;;;;;;2.80;1.30;;;;;;;18.68;39.41;100971.34;4879084;29;20049;-78
2022/04/03 11:23:14;;;;;;;2.35;1.10;;;;;;;18.69;39.54;100971.22;4878100;29;20049;-77
2022/04/03 11:25:43;;;;;;;3.95;1.70;;;;;;;18.70;39.95;100966.72;4861915;29;20060;-77
2022/04/03 11:28:11;;;;;;;2.25;1.23;;;;;;;18.71;39.76;100971.97;4878894;29;20056;-77
2022/04/03 11:30:38;;;;;;;2.00;1.15;;;;;;;18.71;39.88;100969.28;4879059;29;20049;-77
2022/04/03 11:33:07;;;;;;;3.40;1.40;;;;;;;18.72;39.79;100964.78;4878594;29;20053;-77